sensor_id;sensor_type;location;lat;lon;timestamp;pressure;altitude;pressure_sealevel;temperature;humidity
71770;BME280;66386;52.122;5.420;2023-10-31T00:01:25;99670.88;;;9.13;100.00
71770;BME280;66386;52.122;5.420;2023-10-31T00:03:52;99670.94;;;9.11;100.00
71770;BME280;66386;52.122;5.420;2023-10-31T00:06:18;99679.47;;;9.12;100.00
71770;BME280;66386;52.122;5.420;2023-10-31T00:08:45;99677.81;;;9.11;100.00
71770;BME280;66386;52.122;5.420;2023-10-31T00:11:11;99679.63;;;9.08;100.00
71770;BME280;66386;52.122;5.420;2023-10-31T00:13:38;99677.88;;;9.09;100.00
71770;BME280;66386;52.122;5.420;2023-10-31T00:16:05;99677.06;;;9.08;100.00
71770;BME280;66386;52.122;5.420;2023-10-31T00:18:32;99678.84;;;9.06;100.00
71770;BME280;66386;52.122;5.420;2023-10-31T00:20:58;99679.00;;;9.03;100.00
71770;BME280;66386;52.122;5.420;2023-10-31T00:23:25;99688.44;;;9.03;100.00
71770;BME280;66386;52.122;5.420;2023-10-31T00:25:52;99686.69;;;9.03;100.00
71770;BME280;66386;52.122;5.420;2023-10-31T00:28:19;99693.50;;;9.04;100.00
71770;BME280;66386;52.122;5.420;2023-10-31T00:30:45;99694.38;;;9.03;100.00
71770;BME280;66386;52.122;5.420;2023-10-31T00:33:12;99693.56;;;9.03;100.00
71770;BME280;66386;52.122;5.420;2023-10-31T00:35:38;99696.06;;;9.04;100.00
71770;BME280;66386;52.122;5.420;2023-10-31T00:38:05;99694.31;;;9.05;100.00
71770;BME280;66386;52.122;5.420;2023-10-31T00:40:31;99688.38;;;9.04;100.00
71770;BME280;66386;52.122;5.420;2023-10-31T00:42:58;99687.66;;;9.01;100.00
71770;BME280;66386;52.122;5.420;2023-10-31T00:45:25;99688.53;;;9.01;100.00
71770;BME280;66386;52.122;5.420;2023-10-31T00:47:51;99688.53;;;9.01;100.00
71770;BME280;66386;52.122;5.420;2023-10-31T00:50:18;99691.09;;;9.01;100.00
71770;BME280;66386;52.122;5.420;2023-10-31T00:52:45;99698.69;;;9.03;100.00
71770;BME280;66386;52.122;5.420;2023-10-31T00:55:12;99700.47;;;9.01;100.00
71770;BME280;66386;52.122;5.420;2023-10-31T00:57:39;99703.13;;;8.99;100.00
71770;BME280;66386;52.122;5.420;2023-10-31T01:00:06;99718.41;;;9.01;100.00
71770;BME280;66386;52.122;5.420;2023-10-31T01:02:32;99718.50;;;8.99;100.00
71770;BME280;66386;52.122;5.420;2023-10-31T01:04:59;99719.28;;;9.01;100.00
71770;BME280;66386;52.122;5.420;2023-10-31T01:07:25;99721.75;;;9.03;100.00
71770;BME280;66386;52.122;5.420;2023-10-31T01:09:52;99726.00;;;9.04;100.00
71770;BME280;66386;52.122;5.420;2023-10-31T01:12:18;99722.50;;;9.05;100.00
71770;BME280;66386;52.122;5.420;2023-10-31T01:14:45;99728.56;;;9.04;100.00
71770;BME280;66386;52.122;5.420;2023-10-31T01:17:11;99729.38;;;9.04;100.00
71770;BME280;66386;52.122;5.420;2023-10-31T01:19:38;99731.84;;;9.06;100.00
71770;BME280;66386;52.122;5.420;2023-10-31T01:22:04;99730.97;;;9.07;100.00
71770;BME280;66386;52.122;5.420;2023-10-31T01:24:31;99735.25;;;9.06;100.00
71770;BME280;66386;52.122;5.420;2023-10-31T01:26:57;99743.78;;;9.07;100.00
71770;BME280;66386;52.122;5.420;2023-10-31T01:29:24;99741.97;;;9.09;100.00
71770;BME280;66386;52.122;5.420;2023-10-31T01:31:50;99741.88;;;9.11;100.00
71770;BME280;66386;52.122;5.420;2023-10-31T01:34:26;99752.97;;;9.11;100.00
71770;BME280;66386;52.122;5.420;2023-10-31T01:36:53;99747.09;;;9.09;100.00
71770;BME280;66386;52.122;5.420;2023-10-31T01:39:19;99752.97;;;9.11;100.00
71770;BME280;66386;52.122;5.420;2023-10-31T01:41:46;99749.50;;;9.12;100.00
71770;BME280;66386;52.122;5.420;2023-10-31T01:44:12;99751.03;;;9.16;100.00
71770;BME280;66386;52.122;5.420;2023-10-31T01:46:39;99757.72;;;9.19;100.00
71770;BME280;66386;52.122;5.420;2023-10-31T01:49:05;99753.34;;;9.21;100.00
71770;BME280;66386;52.122;5.420;2023-10-31T01:51:32;99753.34;;;9.21;100.00
71770;BME280;66386;52.122;5.420;2023-10-31T01:53:59;99753.44;;;9.19;100.00
71770;BME280;66386;52.122;5.420;2023-10-31T01:56:26;99759.38;;;9.20;100.00
71770;BME280;66386;52.122;5.420;2023-10-31T01:58:53;99754.19;;;9.21;100.00
71770;BME280;66386;52.122;5.420;2023-10-31T02:01:20;99751.63;;;9.21;100.00
71770;BME280;66386;52.122;5.420;2023-10-31T02:03:47;99755.03;;;9.22;100.00
71770;BME280;66386;52.122;5.420;2023-10-31T02:06:14;99752.38;;;9.23;100.00
71770;BME280;66386;52.122;5.420;2023-10-31T02:08:41;99755.75;;;9.24;100.00
71770;BME280;66386;52.122;5.420;2023-10-31T02:11:07;99749.00;;;9.23;100.00
71770;BME280;66386;52.122;5.420;2023-10-31T02:13:36;99749.81;;;9.23;100.00
71770;BME280;66386;52.122;5.420;2023-10-31T02:16:04;99758.31;;;9.24;100.00
71770;BME280;66386;52.122;5.420;2023-10-31T02:18:31;99752.22;;;9.26;100.00
71770;BME280;66386;52.122;5.420;2023-10-31T02:20:58;99756.53;;;9.26;100.00
71770;BME280;66386;52.122;5.420;2023-10-31T02:23:25;99752.97;;;9.29;100.00
71770;BME280;66386;52.122;5.420;2023-10-31T02:25:51;99757.13;;;9.31;100.00
71770;BME280;66386;52.122;5.420;2023-10-31T02:28:18;99757.97;;;9.32;100.00
71770;BME280;66386;52.122;5.420;2023-10-31T02:30:45;99752.00;;;9.31;100.00
71770;BME280;66386;52.122;5.420;2023-10-31T02:33:11;99751.03;;;9.34;100.00
71770;BME280;66386;52.122;5.420;2023-10-31T02:35:38;99750.19;;;9.33;100.00
71770;BME280;66386;52.122;5.420;2023-10-31T02:38:04;99757.81;;;9.35;100.00
71770;BME280;66386;52.122;5.420;2023-10-31T02:40:31;99758.72;;;9.34;100.00
71770;BME280;66386;52.122;5.420;2023-10-31T02:42:57;99764.66;;;9.34;100.00
71770;BME280;66386;52.122;5.420;2023-10-31T02:45:23;99761.34;;;9.32;100.00
71770;BME280;66386;52.122;5.420;2023-10-31T02:47:50;99769.72;;;9.36;100.00
71770;BME280;66386;52.122;5.420;2023-10-31T02:50:17;99778.25;;;9.36;100.00
71770;BME280;66386;52.122;5.420;2023-10-31T02:52:43;99776.59;;;9.35;100.00
71770;BME280;66386;52.122;5.420;2023-10-31T02:55:10;99771.47;;;9.35;100.00
71770;BME280;66386;52.122;5.420;2023-10-31T02:57:36;99787.66;;;9.36;100.00
71770;BME280;66386;52.122;5.420;2023-10-31T03:00:03;99775.78;;;9.35;100.00
71770;BME280;66386;52.122;5.420;2023-10-31T03:02:30;99782.53;;;9.36;100.00
71770;BME280;66386;52.122;5.420;2023-10-31T03:04:57;99784.28;;;9.35;100.00
71770;BME280;66386;52.122;5.420;2023-10-31T03:07:24;99784.28;;;9.35;100.00
71770;BME280;66386;52.122;5.420;2023-10-31T03:09:50;99786.84;;;9.35;100.00
71770;BME280;66386;52.122;5.420;2023-10-31T03:12:17;99786.03;;;9.35;100.00
71770;BME280;66386;52.122;5.420;2023-10-31T03:14:43;99791.09;;;9.36;100.00
71770;BME280;66386;52.122;5.420;2023-10-31T03:17:10;99797.09;;;9.35;100.00
71770;BME280;66386;52.122;5.420;2023-10-31T03:19:36;99802.16;;;9.37;100.00
71770;BME280;66386;52.122;5.420;2023-10-31T03:22:03;99808.09;;;9.37;100.00
71770;BME280;66386;52.122;5.420;2023-10-31T03:24:29;99807.22;;;9.38;100.00
71770;BME280;66386;52.122;5.420;2023-10-31T03:26:56;99814.00;;;9.39;100.00
71770;BME280;66386;52.122;5.420;2023-10-31T03:29:22;99814.81;;;9.40;100.00
71770;BME280;66386;52.122;5.420;2023-10-31T03:31:49;99820.81;;;9.40;100.00
71770;BME280;66386;52.122;5.420;2023-10-31T03:34:15;99835.34;;;9.40;100.00
71770;BME280;66386;52.122;5.420;2023-10-31T03:36:42;99832.78;;;9.40;100.00
71770;BME280;66386;52.122;5.420;2023-10-31T03:39:08;99840.47;;;9.40;100.00
71770;BME280;66386;52.122;5.420;2023-10-31T03:41:35;99838.84;;;9.39;100.00
71770;BME280;66386;52.122;5.420;2023-10-31T03:44:02;99844.78;;;9.39;100.00
71770;BME280;66386;52.122;5.420;2023-10-31T03:46:28;99849.09;;;9.39;100.00
71770;BME280;66386;52.122;5.420;2023-10-31T03:48:55;99856.81;;;9.37;100.00
71770;BME280;66386;52.122;5.420;2023-10-31T03:51:21;99862.03;;;9.36;100.00
71770;BME280;66386;52.122;5.420;2023-10-31T03:53:48;99869.72;;;9.36;100.00
71770;BME280;66386;52.122;5.420;2023-10-31T03:56:14;99877.41;;;9.36;100.00
71770;BME280;66386;52.122;5.420;2023-10-31T03:58:42;99868.91;;;9.35;100.00
71770;BME280;66386;52.122;5.420;2023-10-31T04:01:09;99887.69;;;9.36;100.00
71770;BME280;66386;52.122;5.420;2023-10-31T04:03:36;99882.63;;;9.34;100.00
71770;BME280;66386;52.122;5.420;2023-10-31T04:06:02;99880.97;;;9.33;100.00
71770;BME280;66386;52.122;5.420;2023-10-31T04:08:29;99886.25;;;9.30;100.00
71770;BME280;66386;52.122;5.420;2023-10-31T04:10:55;99887.97;;;9.30;100.00
71770;BME280;66386;52.122;5.420;2023-10-31T04:13:22;99888.03;;;9.28;100.00
71770;BME280;66386;52.122;5.420;2023-10-31T04:15:48;99883.00;;;9.26;100.00
71770;BME280;66386;52.122;5.420;2023-10-31T04:18:15;99890.75;;;9.25;100.00
71770;BME280;66386;52.122;5.420;2023-10-31T04:20:41;99891.56;;;9.25;100.00
71770;BME280;66386;52.122;5.420;2023-10-31T04:23:08;99901.84;;;9.25;100.00
71770;BME280;66386;52.122;5.420;2023-10-31T04:25:34;99895.97;;;9.23;100.00
71770;BME280;66386;52.122;5.420;2023-10-31T04:28:01;99895.97;;;9.23;100.00
71770;BME280;66386;52.122;5.420;2023-10-31T04:30:27;99896.91;;;9.21;100.00
71770;BME280;66386;52.122;5.420;2023-10-31T04:32:54;99893.59;;;9.19;100.00
71770;BME280;66386;52.122;5.420;2023-10-31T04:35:20;99903.72;;;9.22;100.00
71770;BME280;66386;52.122;5.420;2023-10-31T04:37:47;99905.50;;;9.20;100.00
71770;BME280;66386;52.122;5.420;2023-10-31T04:40:14;99909.75;;;9.21;100.00
71770;BME280;66386;52.122;5.420;2023-10-31T04:42:40;99904.75;;;9.18;100.00
71770;BME280;66386;52.122;5.420;2023-10-31T04:45:07;99904.75;;;9.18;100.00
71770;BME280;66386;52.122;5.420;2023-10-31T04:47:34;99902.19;;;9.18;100.00
71770;BME280;66386;52.122;5.420;2023-10-31T04:50:01;99904.75;;;9.18;100.00
71770;BME280;66386;52.122;5.420;2023-10-31T04:52:28;99911.63;;;9.17;100.00
71770;BME280;66386;52.122;5.420;2023-10-31T04:54:54;99911.69;;;9.16;100.00
71770;BME280;66386;52.122;5.420;2023-10-31T04:57:20;99913.50;;;9.14;100.00
71770;BME280;66386;52.122;5.420;2023-10-31T04:59:47;99915.22;;;9.13;100.00
71770;BME280;66386;52.122;5.420;2023-10-31T05:02:14;99913.63;;;9.11;100.00
71770;BME280;66386;52.122;5.420;2023-10-31T05:04:41;99918.81;;;9.09;100.00
71770;BME280;66386;52.122;5.420;2023-10-31T05:07:07;99918.09;;;9.07;100.00
71770;BME280;66386;52.122;5.420;2023-10-31T05:09:34;99917.16;;;9.08;100.00
71770;BME280;66386;52.122;5.420;2023-10-31T05:12:01;99926.66;;;9.06;100.00
71770;BME280;66386;52.122;5.420;2023-10-31T05:14:28;99926.81;;;9.03;100.00
71770;BME280;66386;52.122;5.420;2023-10-31T05:16:55;99932.69;;;9.05;100.00
71770;BME280;66386;52.122;5.420;2023-10-31T05:19:21;99944.81;;;9.01;100.00
71770;BME280;66386;52.122;5.420;2023-10-31T05:21:48;99941.47;;;8.99;100.00
71770;BME280;66386;52.122;5.420;2023-10-31T05:24:14;99935.75;;;8.94;100.00
71770;BME280;66386;52.122;5.420;2023-10-31T05:26:41;99938.38;;;8.93;100.00
71770;BME280;66386;52.122;5.420;2023-10-31T05:29:09;99935.94;;;8.89;100.00
71770;BME280;66386;52.122;5.420;2023-10-31T05:31:36;99951.25;;;8.91;100.00
71770;BME280;66386;52.122;5.420;2023-10-31T05:34:02;99948.69;;;8.91;100.00
71770;BME280;66386;52.122;5.420;2023-10-31T05:36:30;99950.47;;;8.89;100.00
71770;BME280;66386;52.122;5.420;2023-10-31T05:38:56;99956.44;;;8.89;100.00
71770;BME280;66386;52.122;5.420;2023-10-31T05:41:23;99958.16;;;8.89;100.00
71770;BME280;66386;52.122;5.420;2023-10-31T05:43:49;99954.84;;;8.87;100.00
71770;BME280;66386;52.122;5.420;2023-10-31T05:46:16;99965.97;;;8.86;100.00
71770;BME280;66386;52.122;5.420;2023-10-31T05:48:44;99972.78;;;8.87;100.00
71770;BME280;66386;52.122;5.420;2023-10-31T05:51:16;99974.59;;;8.85;100.00
71770;BME280;66386;52.122;5.420;2023-10-31T05:53:47;99974.59;;;8.85;100.00
71770;BME280;66386;52.122;5.420;2023-10-31T05:56:15;99975.47;;;8.84;100.00
71770;BME280;66386;52.122;5.420;2023-10-31T05:58:42;99977.97;;;8.85;100.00
71770;BME280;66386;52.122;5.420;2023-10-31T06:01:09;99970.34;;;8.84;100.00
71770;BME280;66386;52.122;5.420;2023-10-31T06:03:36;99973.81;;;8.83;100.00
71770;BME280;66386;52.122;5.420;2023-10-31T06:06:03;99977.25;;;8.82;100.00
71770;BME280;66386;52.122;5.420;2023-10-31T06:08:30;99973.00;;;8.82;100.00
71770;BME280;66386;52.122;5.420;2023-10-31T06:10:57;99987.41;;;8.85;100.00
71770;BME280;66386;52.122;5.420;2023-10-31T06:13:24;99981.50;;;8.83;100.00
71770;BME280;66386;52.122;5.420;2023-10-31T06:15:54;99990.00;;;8.83;100.00
71770;BME280;66386;52.122;5.420;2023-10-31T06:18:27;99992.63;;;8.82;100.00
71770;BME280;66386;52.122;5.420;2023-10-31T06:20:53;99998.59;;;8.82;100.00
71770;BME280;66386;52.122;5.420;2023-10-31T06:23:20;100001.25;;;8.81;100.00
71770;BME280;66386;52.122;5.420;2023-10-31T06:25:46;100004.69;;;8.80;100.00
71770;BME280;66386;52.122;5.420;2023-10-31T06:28:14;100003.03;;;8.79;100.00
71770;BME280;66386;52.122;5.420;2023-10-31T06:30:40;100004.69;;;8.80;100.00
71770;BME280;66386;52.122;5.420;2023-10-31T06:33:07;100009.75;;;8.81;100.00
71770;BME280;66386;52.122;5.420;2023-10-31T06:35:35;100008.94;;;8.81;100.00
71770;BME280;66386;52.122;5.420;2023-10-31T06:38:01;100008.84;;;8.82;100.00
71770;BME280;66386;52.122;5.420;2023-10-31T06:40:28;100008.00;;;8.82;100.00
71770;BME280;66386;52.122;5.420;2023-10-31T06:42:54;100017.38;;;8.83;100.00
71770;BME280;66386;52.122;5.420;2023-10-31T06:45:21;100013.91;;;8.84;100.00
71770;BME280;66386;52.122;5.420;2023-10-31T06:47:47;100023.31;;;8.83;100.00
71770;BME280;66386;52.122;5.420;2023-10-31T06:50:14;100026.88;;;8.81;100.00
71770;BME280;66386;52.122;5.420;2023-10-31T06:52:43;100031.13;;;8.80;100.00
71770;BME280;66386;52.122;5.420;2023-10-31T06:55:10;100032.94;;;8.78;100.00
71770;BME280;66386;52.122;5.420;2023-10-31T06:57:37;100035.44;;;8.80;100.00
71770;BME280;66386;52.122;5.420;2023-10-31T07:00:04;100038.88;;;8.79;100.00
71770;BME280;66386;52.122;5.420;2023-10-31T07:02:34;100035.44;;;8.80;100.00
71770;BME280;66386;52.122;5.420;2023-10-31T07:05:01;100035.44;;;8.80;100.00
71770;BME280;66386;52.122;5.420;2023-10-31T07:07:29;100041.38;;;8.80;100.00
71770;BME280;66386;52.122;5.420;2023-10-31T07:09:56;100044.00;;;8.79;100.00
71770;BME280;66386;52.122;5.420;2023-10-31T07:12:22;100045.69;;;8.80;100.00
71770;BME280;66386;52.122;5.420;2023-10-31T07:14:49;100042.25;;;8.81;100.00
71770;BME280;66386;52.122;5.420;2023-10-31T07:17:16;100049.06;;;8.80;100.00
71770;BME280;66386;52.122;5.420;2023-10-31T07:19:42;100052.41;;;8.82;100.00
71770;BME280;66386;52.122;5.420;2023-10-31T07:22:08;100054.06;;;8.83;100.00
71770;BME280;66386;52.122;5.420;2023-10-31T07:24:35;100068.47;;;8.86;100.00
71770;BME280;66386;52.122;5.420;2023-10-31T07:27:02;100073.47;;;8.89;100.00
71770;BME280;66386;52.122;5.420;2023-10-31T07:29:30;100070.69;;;8.95;100.00
71770;BME280;66386;52.122;5.420;2023-10-31T07:31:56;100071.38;;;8.99;100.00
71770;BME280;66386;52.122;5.420;2023-10-31T07:34:23;100073.72;;;9.03;100.00
71770;BME280;66386;52.122;5.420;2023-10-31T07:36:49;100077.97;;;9.04;100.00
71770;BME280;66386;52.122;5.420;2023-10-31T07:39:16;100075.19;;;9.09;100.00
71770;BME280;66386;52.122;5.420;2023-10-31T07:41:42;100076.72;;;9.13;100.00
71770;BME280;66386;52.122;5.420;2023-10-31T07:44:09;100078.41;;;9.14;100.00
71770;BME280;66386;52.122;5.420;2023-10-31T07:46:35;100087.88;;;9.12;100.00
71770;BME280;66386;52.122;5.420;2023-10-31T07:49:02;100087.88;;;9.12;100.00
71770;BME280;66386;52.122;5.420;2023-10-31T07:51:28;100097.19;;;9.15;100.00
71770;BME280;66386;52.122;5.420;2023-10-31T07:53:55;100091.78;;;9.21;100.00
71770;BME280;66386;52.122;5.420;2023-10-31T07:56:25;100095.81;;;9.26;100.00
71770;BME280;66386;52.122;5.420;2023-10-31T07:58:52;100101.66;;;9.30;100.00
71770;BME280;66386;52.122;5.420;2023-10-31T08:01:19;100102.41;;;9.32;100.00
71770;BME280;66386;52.122;5.420;2023-10-31T08:03:46;100102.13;;;9.38;100.00
71770;BME280;66386;52.122;5.420;2023-10-31T08:06:14;100104.56;;;9.41;100.00
71770;BME280;66386;52.122;5.420;2023-10-31T08:08:40;100105.47;;;9.40;100.00
71770;BME280;66386;52.122;5.420;2023-10-31T08:11:08;100104.63;;;9.40;100.00
71770;BME280;66386;52.122;5.420;2023-10-31T08:13:36;100102.91;;;9.40;100.00
71770;BME280;66386;52.122;5.420;2023-10-31T08:16:05;100110.69;;;9.39;100.00
71770;BME280;66386;52.122;5.420;2023-10-31T08:18:32;100112.25;;;9.41;100.00
71770;BME280;66386;52.122;5.420;2023-10-31T08:20:59;100110.41;;;9.45;100.00
71770;BME280;66386;52.122;5.420;2023-10-31T08:23:25;100107.56;;;9.51;100.00
71770;BME280;66386;52.122;5.420;2023-10-31T08:25:52;100108.13;;;9.58;100.00
71770;BME280;66386;52.122;5.420;2023-10-31T08:28:19;100113.28;;;9.58;100.00
71770;BME280;66386;52.122;5.420;2023-10-31T08:30:46;100114.84;;;9.60;100.00
71770;BME280;66386;52.122;5.420;2023-10-31T08:33:13;100110.97;;;9.71;100.00
71770;BME280;66386;52.122;5.420;2023-10-31T08:35:40;100114.25;;;9.74;100.00
71770;BME280;66386;52.122;5.420;2023-10-31T08:38:08;100109.03;;;9.95;100.00
71770;BME280;66386;52.122;5.420;2023-10-31T08:40:46;100114.00;;;11.06;100.00
71770;BME280;66386;52.122;5.420;2023-10-31T08:43:13;100119.16;;;12.21;100.00
71770;BME280;66386;52.122;5.420;2023-10-31T08:45:40;100123.00;;;13.05;100.00
71770;BME280;66386;52.122;5.420;2023-10-31T08:48:06;100130.81;;;13.48;100.00
71770;BME280;66386;52.122;5.420;2023-10-31T08:50:33;100120.81;;;14.12;100.00
71770;BME280;66386;52.122;5.420;2023-10-31T08:52:59;100132.03;;;14.26;100.00
71770;BME280;66386;52.122;5.420;2023-10-31T08:55:28;100135.66;;;14.23;100.00
71770;BME280;66386;52.122;5.420;2023-10-31T08:57:54;100142.53;;;13.95;100.00
71770;BME280;66386;52.122;5.420;2023-10-31T09:00:21;100136.88;;;13.61;100.00
71770;BME280;66386;52.122;5.420;2023-10-31T09:02:47;100144.38;;;13.21;100.00
71770;BME280;66386;52.122;5.420;2023-10-31T09:05:14;100154.31;;;12.68;100.00
71770;BME280;66386;52.122;5.420;2023-10-31T09:07:41;100167.03;;;12.09;100.00
71770;BME280;66386;52.122;5.420;2023-10-31T09:10:07;100162.81;;;11.75;100.00
71770;BME280;66386;52.122;5.420;2023-10-31T09:12:34;100165.97;;;11.64;100.00
71770;BME280;66386;52.122;5.420;2023-10-31T09:15:00;100168.84;;;11.58;100.00
71770;BME280;66386;52.122;5.420;2023-10-31T09:17:27;100170.75;;;11.54;100.00
71770;BME280;66386;52.122;5.420;2023-10-31T09:19:54;100180.72;;;11.60;100.00
71770;BME280;66386;52.122;5.420;2023-10-31T09:22:20;100180.63;;;11.62;100.00
71770;BME280;66386;52.122;5.420;2023-10-31T09:24:47;100186.69;;;11.61;100.00
71770;BME280;66386;52.122;5.420;2023-10-31T09:27:13;100190.84;;;11.63;100.00
71770;BME280;66386;52.122;5.420;2023-10-31T09:29:40;100192.38;;;11.67;100.00
71770;BME280;66386;52.122;5.420;2023-10-31T09:32:07;100187.75;;;11.74;100.00
71770;BME280;66386;52.122;5.420;2023-10-31T09:34:34;100185.91;;;11.76;100.00
71770;BME280;66386;52.122;5.420;2023-10-31T09:37:00;100191.56;;;11.83;100.00
71770;BME280;66386;52.122;5.420;2023-10-31T09:39:27;100187.31;;;11.82;100.00
71770;BME280;66386;52.122;5.420;2023-10-31T09:41:54;100190.72;;;11.82;100.00
71770;BME280;66386;52.122;5.420;2023-10-31T09:44:21;100191.84;;;11.94;100.00
71770;BME280;66386;52.122;5.420;2023-10-31T09:46:47;100201.00;;;12.16;100.00
71770;BME280;66386;52.122;5.420;2023-10-31T09:49:16;100204.00;;;12.08;100.00
71770;BME280;66386;52.122;5.420;2023-10-31T09:51:42;100195.09;;;11.98;100.00
71770;BME280;66386;52.122;5.420;2023-10-31T09:54:09;100209.66;;;11.99;100.00
71770;BME280;66386;52.122;5.420;2023-10-31T09:56:39;100209.16;;;12.08;100.00
71770;BME280;66386;52.122;5.420;2023-10-31T09:59:06;100224.13;;;12.33;100.00
71770;BME280;66386;52.122;5.420;2023-10-31T10:01:32;100221.72;;;12.30;100.00
71770;BME280;66386;52.122;5.420;2023-10-31T10:03:59;100222.53;;;12.31;100.00
71770;BME280;66386;52.122;5.420;2023-10-31T10:06:26;100216.81;;;12.26;100.00
71770;BME280;66386;52.122;5.420;2023-10-31T10:08:55;100229.94;;;12.21;100.00
71770;BME280;66386;52.122;5.420;2023-10-31T10:11:22;100234.25;;;12.20;100.00
71770;BME280;66386;52.122;5.420;2023-10-31T10:13:51;100237.50;;;12.24;100.00
71770;BME280;66386;52.122;5.420;2023-10-31T10:16:31;100234.34;;;12.51;100.00
71770;BME280;66386;52.122;5.420;2023-10-31T10:19:18;100241.16;;;12.68;100.00
71770;BME280;66386;52.122;5.420;2023-10-31T10:21:52;100241.25;;;12.66;100.00
71770;BME280;66386;52.122;5.420;2023-10-31T10:24:20;100238.59;;;12.52;100.00
71770;BME280;66386;52.122;5.420;2023-10-31T10:26:47;100251.75;;;12.47;100.00
71770;BME280;66386;52.122;5.420;2023-10-31T10:29:15;100245.63;;;12.64;100.00
71770;BME280;66386;52.122;5.420;2023-10-31T10:31:41;100253.25;;;12.98;100.00
71770;BME280;66386;52.122;5.420;2023-10-31T10:34:09;100255.06;;;13.12;100.00
71770;BME280;66386;52.122;5.420;2023-10-31T10:36:36;100257.31;;;13.02;100.00
71770;BME280;66386;52.122;5.420;2023-10-31T10:39:02;100249.69;;;13.00;100.00
71770;BME280;66386;52.122;5.420;2023-10-31T10:41:34;100248.00;;;12.99;100.00
71770;BME280;66386;52.122;5.420;2023-10-31T10:44:05;100248.78;;;12.85;100.00
71770;BME280;66386;52.122;5.420;2023-10-31T10:46:34;100246.16;;;12.71;100.00
71770;BME280;66386;52.122;5.420;2023-10-31T10:49:04;100251.94;;;12.74;100.00
71770;BME280;66386;52.122;5.420;2023-10-31T10:51:58;100255.66;;;12.70;100.00
71770;BME280;66386;52.122;5.420;2023-10-31T10:54:46;100257.53;;;12.51;100.00
71770;BME280;66386;52.122;5.420;2023-10-31T10:57:24;100259.03;;;12.39;100.00
71770;BME280;66386;52.122;5.420;2023-10-31T10:59:55;100263.78;;;12.63;100.00
71770;BME280;66386;52.122;5.420;2023-10-31T11:02:24;100254.94;;;12.83;100.00
71770;BME280;66386;52.122;5.420;2023-10-31T11:04:52;100256.25;;;13.06;100.00
71770;BME280;66386;52.122;5.420;2023-10-31T11:07:20;100255.63;;;13.17;100.00
71770;BME280;66386;52.122;5.420;2023-10-31T11:09:47;100263.34;;;13.17;100.00
71770;BME280;66386;52.122;5.420;2023-10-31T11:12:13;100260.38;;;13.24;100.00
71770;BME280;66386;52.122;5.420;2023-10-31T11:14:41;100262.25;;;13.37;100.00
71770;BME280;66386;52.122;5.420;2023-10-31T11:17:23;100260.72;;;13.49;100.00
71770;BME280;66386;52.122;5.420;2023-10-31T11:19:52;100262.28;;;13.51;100.00
71770;BME280;66386;52.122;5.420;2023-10-31T11:22:19;100265.41;;;13.42;100.00
71770;BME280;66386;52.122;5.420;2023-10-31T11:24:49;100269.41;;;13.32;100.00
71770;BME280;66386;52.122;5.420;2023-10-31T11:27:17;100272.94;;;13.15;100.00
71770;BME280;66386;52.122;5.420;2023-10-31T11:29:44;100272.16;;;12.98;100.00
71770;BME280;66386;52.122;5.420;2023-10-31T11:32:11;100277.47;;;12.95;100.00
71770;BME280;66386;52.122;5.420;2023-10-31T11:34:38;100269.91;;;12.92;100.00
71770;BME280;66386;52.122;5.420;2023-10-31T11:37:31;100278.38;;;13.10;100.00
71770;BME280;66386;52.122;5.420;2023-10-31T11:40:19;100276.84;;;13.38;100.00
71770;BME280;66386;52.122;5.420;2023-10-31T11:42:50;100280.53;;;13.48;100.00
71770;BME280;66386;52.122;5.420;2023-10-31T11:45:35;100283.81;;;13.36;100.00
71770;BME280;66386;52.122;5.420;2023-10-31T11:48:04;100278.19;;;13.13;100.00
71770;BME280;66386;52.122;5.420;2023-10-31T11:50:32;100283.81;;;13.05;100.00
71770;BME280;66386;52.122;5.420;2023-10-31T11:53:06;100285.69;;;13.02;100.00
71770;BME280;66386;52.122;5.420;2023-10-31T11:55:35;100283.31;;;12.99;100.00
71770;BME280;66386;52.122;5.420;2023-10-31T12:00:46;100287.78;;;12.95;100.00
71770;BME280;66386;52.122;5.420;2023-10-31T12:03:15;100293.47;;;12.86;100.00
71770;BME280;66386;52.122;5.420;2023-10-31T12:05:54;100303.44;;;12.76;100.00
71770;BME280;66386;52.122;5.420;2023-10-31T12:08:43;100296.31;;;12.65;100.00
71770;BME280;66386;52.122;5.420;2023-10-31T12:11:11;100300.81;;;12.62;100.00
71770;BME280;66386;52.122;5.420;2023-10-31T12:13:40;100293.97;;;12.61;100.00
71770;BME280;66386;52.122;5.420;2023-10-31T12:16:08;100304.28;;;12.61;100.00
71770;BME280;66386;52.122;5.420;2023-10-31T12:18:36;100303.94;;;12.67;100.00
71770;BME280;66386;52.122;5.420;2023-10-31T12:21:05;100301.19;;;12.70;100.00
71770;BME280;66386;52.122;5.420;2023-10-31T12:23:33;100306.28;;;12.71;100.00
71770;BME280;66386;52.122;5.420;2023-10-31T12:26:00;100311.50;;;12.70;100.00
71770;BME280;66386;52.122;5.420;2023-10-31T12:28:27;100319.41;;;12.67;100.00
71770;BME280;66386;52.122;5.420;2023-10-31T12:30:55;100316.50;;;12.57;100.00
71770;BME280;66386;52.122;5.420;2023-10-31T12:33:25;100318.75;;;12.47;100.00
71770;BME280;66386;52.122;5.420;2023-10-31T12:35:57;100319.56;;;12.48;100.00
71770;BME280;66386;52.122;5.420;2023-10-31T12:38:24;100330.13;;;12.43;100.00
71770;BME280;66386;52.122;5.420;2023-10-31T12:40:52;100325.88;;;12.42;100.00
71770;BME280;66386;52.122;5.420;2023-10-31T12:43:19;100330.78;;;12.47;100.00
71770;BME280;66386;52.122;5.420;2023-10-31T12:45:46;100335.66;;;12.53;100.00
71770;BME280;66386;52.122;5.420;2023-10-31T12:48:12;100343.03;;;12.59;100.00
71770;BME280;66386;52.122;5.420;2023-10-31T12:50:39;100339.22;;;12.66;100.00
71770;BME280;66386;52.122;5.420;2023-10-31T12:53:09;100339.97;;;12.68;100.00
71770;BME280;66386;52.122;5.420;2023-10-31T12:55:40;100340.47;;;12.59;100.00
71770;BME280;66386;52.122;5.420;2023-10-31T12:58:07;100339.28;;;12.49;100.00